sensor_id;sensor_type;location;lat;lon;timestamp;temperature;humidity
569;DHT22;269;48.884;9.192;2022-12-18T00:01:02;-7.60;99.90
569;DHT22;269;48.884;9.192;2022-12-18T00:03:32;-7.60;99.90
569;DHT22;269;48.884;9.192;2022-12-18T00:05:59;-7.50;99.90
569;DHT22;269;48.884;9.192;2022-12-18T00:08:27;-7.50;99.90
569;DHT22;269;48.884;9.192;2022-12-18T00:10:54;-7.50;99.90
569;DHT22;269;48.884;9.192;2022-12-18T00:13:21;-7.50;99.90
569;DHT22;269;48.884;9.192;2022-12-18T00:15:49;-7.50;99.90
569;DHT22;269;48.884;9.192;2022-12-18T00:18:17;-7.50;99.90
569;DHT22;269;48.884;9.192;2022-12-18T00:20:44;-7.50;99.90
569;DHT22;269;48.884;9.192;2022-12-18T00:23:12;-7.20;99.90
569;DHT22;269;48.884;9.192;2022-12-18T00:25:39;-7.60;99.90
569;DHT22;269;48.884;9.192;2022-12-18T00:28:06;-7.60;99.90
569;DHT22;269;48.884;9.192;2022-12-18T00:30:33;-7.60;99.90
569;DHT22;269;48.884;9.192;2022-12-18T00:33:01;-7.60;99.90
569;DHT22;269;48.884;9.192;2022-12-18T00:35:29;-7.70;99.90
569;DHT22;269;48.884;9.192;2022-12-18T00:37:58;-7.60;99.90
569;DHT22;269;48.884;9.192;2022-12-18T00:40:25;-7.70;99.90
569;DHT22;269;48.884;9.192;2022-12-18T00:42:52;-7.70;99.90
569;DHT22;269;48.884;9.192;2022-12-18T00:45:25;-7.80;99.90
569;DHT22;269;48.884;9.192;2022-12-18T00:47:52;-7.80;99.90
569;DHT22;269;48.884;9.192;2022-12-18T00:50:19;-7.80;99.90
569;DHT22;269;48.884;9.192;2022-12-18T00:52:49;-7.90;99.90
569;DHT22;269;48.884;9.192;2022-12-18T00:55:16;-8.00;99.90
569;DHT22;269;48.884;9.192;2022-12-18T00:57:44;-8.00;99.90
569;DHT22;269;48.884;9.192;2022-12-18T01:00:13;-8.00;99.90
569;DHT22;269;48.884;9.192;2022-12-18T01:02:40;-8.10;99.90
569;DHT22;269;48.884;9.192;2022-12-18T01:05:08;-8.10;99.90
569;DHT22;269;48.884;9.192;2022-12-18T01:07:36;-8.10;99.90
569;DHT22;269;48.884;9.192;2022-12-18T01:10:05;-8.20;99.90
569;DHT22;269;48.884;9.192;2022-12-18T01:12:33;-8.20;99.90
569;DHT22;269;48.884;9.192;2022-12-18T01:15:00;-8.30;99.90
569;DHT22;269;48.884;9.192;2022-12-18T01:17:27;-8.30;99.90
569;DHT22;269;48.884;9.192;2022-12-18T01:19:54;-8.40;99.90
569;DHT22;269;48.884;9.192;2022-12-18T01:22:22;-8.40;99.90
569;DHT22;269;48.884;9.192;2022-12-18T01:24:49;-8.40;99.90
569;DHT22;269;48.884;9.192;2022-12-18T01:27:17;-8.40;99.90
569;DHT22;269;48.884;9.192;2022-12-18T01:29:45;-8.30;99.90
569;DHT22;269;48.884;9.192;2022-12-18T01:32:11;-8.30;99.90
569;DHT22;269;48.884;9.192;2022-12-18T01:34:39;-8.30;99.90
569;DHT22;269;48.884;9.192;2022-12-18T01:37:06;-8.00;99.90
569;DHT22;269;48.884;9.192;2022-12-18T01:39:33;-8.30;99.90
569;DHT22;269;48.884;9.192;2022-12-18T01:42:05;-8.40;99.90
569;DHT22;269;48.884;9.192;2022-12-18T01:45:05;-8.40;99.90
569;DHT22;269;48.884;9.192;2022-12-18T01:47:35;-8.40;99.90
569;DHT22;269;48.884;9.192;2022-12-18T01:50:07;-8.30;99.90
569;DHT22;269;48.884;9.192;2022-12-18T01:52:34;-8.30;99.90
569;DHT22;269;48.884;9.192;2022-12-18T01:55:04;-8.30;99.90
569;DHT22;269;48.884;9.192;2022-12-18T01:57:32;-8.30;99.90
569;DHT22;269;48.884;9.192;2022-12-18T02:00:06;-8.30;99.90
569;DHT22;269;48.884;9.192;2022-12-18T02:02:34;-8.40;99.90
569;DHT22;269;48.884;9.192;2022-12-18T02:05:03;-8.40;99.90
569;DHT22;269;48.884;9.192;2022-12-18T02:07:37;-8.30;99.90
569;DHT22;269;48.884;9.192;2022-12-18T02:10:10;-8.30;99.90
569;DHT22;269;48.884;9.192;2022-12-18T02:12:44;-8.30;99.90
569;DHT22;269;48.884;9.192;2022-12-18T02:15:17;-8.30;99.90
569;DHT22;269;48.884;9.192;2022-12-18T02:17:50;-8.30;99.90
569;DHT22;269;48.884;9.192;2022-12-18T02:20:25;-8.30;99.90
569;DHT22;269;48.884;9.192;2022-12-18T02:23:06;-8.30;99.90
569;DHT22;269;48.884;9.192;2022-12-18T02:25:54;-8.20;99.90
569;DHT22;269;48.884;9.192;2022-12-18T02:28:28;-8.30;99.90
569;DHT22;269;48.884;9.192;2022-12-18T02:31:00;-8.30;99.90
569;DHT22;269;48.884;9.192;2022-12-18T02:33:29;-8.30;99.90
569;DHT22;269;48.884;9.192;2022-12-18T02:35:58;-8.30;99.90
569;DHT22;269;48.884;9.192;2022-12-18T02:38:27;-8.20;99.90
569;DHT22;269;48.884;9.192;2022-12-18T02:40:57;-8.10;99.90
569;DHT22;269;48.884;9.192;2022-12-18T02:43:25;-8.30;99.90
569;DHT22;269;48.884;9.192;2022-12-18T02:45:54;-8.30;99.90
569;DHT22;269;48.884;9.192;2022-12-18T02:48:24;-8.30;99.90
569;DHT22;269;48.884;9.192;2022-12-18T02:50:57;-8.30;99.90
569;DHT22;269;48.884;9.192;2022-12-18T02:53:32;-8.20;99.90
569;DHT22;269;48.884;9.192;2022-12-18T02:56:07;-8.20;99.90
569;DHT22;269;48.884;9.192;2022-12-18T02:58:45;-7.90;99.90
569;DHT22;269;48.884;9.192;2022-12-18T03:01:19;-8.20;99.90
569;DHT22;269;48.884;9.192;2022-12-18T03:03:50;-8.20;99.90
569;DHT22;269;48.884;9.192;2022-12-18T03:06:24;-8.20;99.90
569;DHT22;269;48.884;9.192;2022-12-18T03:08:56;-8.10;99.90
569;DHT22;269;48.884;9.192;2022-12-18T03:11:29;-8.10;99.90
569;DHT22;269;48.884;9.192;2022-12-18T03:14:15;-8.10;99.90
569;DHT22;269;48.884;9.192;2022-12-18T03:16:44;-8.10;99.90
569;DHT22;269;48.884;9.192;2022-12-18T03:19:16;-7.90;99.90
569;DHT22;269;48.884;9.192;2022-12-18T03:21:46;-8.10;99.90
569;DHT22;269;48.884;9.192;2022-12-18T03:24:17;-8.10;99.90
569;DHT22;269;48.884;9.192;2022-12-18T03:26:49;-8.10;99.90
569;DHT22;269;48.884;9.192;2022-12-18T03:29:20;-8.10;99.90
569;DHT22;269;48.884;9.192;2022-12-18T03:31:53;-8.20;99.90
569;DHT22;269;48.884;9.192;2022-12-18T03:34:23;-8.20;99.90
569;DHT22;269;48.884;9.192;2022-12-18T03:36:52;-8.20;99.90
569;DHT22;269;48.884;9.192;2022-12-18T03:39:20;-8.20;99.90
569;DHT22;269;48.884;9.192;2022-12-18T03:41:52;-8.10;99.90
569;DHT22;269;48.884;9.192;2022-12-18T03:44:29;-8.10;99.90
569;DHT22;269;48.884;9.192;2022-12-18T03:47:01;-8.10;99.90
569;DHT22;269;48.884;9.192;2022-12-18T03:49:36;-8.20;99.90
569;DHT22;269;48.884;9.192;2022-12-18T03:52:09;-8.20;99.90
569;DHT22;269;48.884;9.192;2022-12-18T03:54:39;-8.20;99.90
569;DHT22;269;48.884;9.192;2022-12-18T03:57:13;-7.90;99.90
569;DHT22;269;48.884;9.192;2022-12-18T03:59:43;-8.20;99.90
569;DHT22;269;48.884;9.192;2022-12-18T04:02:11;-8.20;99.90
569;DHT22;269;48.884;9.192;2022-12-18T04:04:39;-8.20;99.90
569;DHT22;269;48.884;9.192;2022-12-18T04:07:07;-8.20;99.90
569;DHT22;269;48.884;9.192;2022-12-18T04:09:36;-8.20;99.90
569;DHT22;269;48.884;9.192;2022-12-18T04:12:04;-8.30;99.90
569;DHT22;269;48.884;9.192;2022-12-18T04:14:33;-8.30;99.90
569;DHT22;269;48.884;9.192;2022-12-18T04:17:01;-8.30;99.90
569;DHT22;269;48.884;9.192;2022-12-18T04:19:28;-8.30;99.90
569;DHT22;269;48.884;9.192;2022-12-18T04:21:55;-8.30;99.90
569;DHT22;269;48.884;9.192;2022-12-18T04:24:22;-8.00;99.90
569;DHT22;269;48.884;9.192;2022-12-18T04:26:49;-8.30;99.90
569;DHT22;269;48.884;9.192;2022-12-18T04:29:17;-8.20;99.90
569;DHT22;269;48.884;9.192;2022-12-18T04:31:45;-8.30;99.90
569;DHT22;269;48.884;9.192;2022-12-18T04:34:12;-8.20;99.90
569;DHT22;269;48.884;9.192;2022-12-18T04:36:40;-8.30;99.90
569;DHT22;269;48.884;9.192;2022-12-18T04:39:07;-8.30;99.90
569;DHT22;269;48.884;9.192;2022-12-18T04:41:34;-8.30;99.90
569;DHT22;269;48.884;9.192;2022-12-18T04:44:01;-8.40;99.90
569;DHT22;269;48.884;9.192;2022-12-18T04:46:28;-8.50;99.90
569;DHT22;269;48.884;9.192;2022-12-18T04:48:57;-8.50;99.90
569;DHT22;269;48.884;9.192;2022-12-18T04:51:24;-8.60;99.90
569;DHT22;269;48.884;9.192;2022-12-18T04:53:51;-8.60;99.90
569;DHT22;269;48.884;9.192;2022-12-18T04:56:19;-8.60;99.90
569;DHT22;269;48.884;9.192;2022-12-18T04:58:46;-8.70;99.90
569;DHT22;269;48.884;9.192;2022-12-18T05:01:15;-8.70;99.90
569;DHT22;269;48.884;9.192;2022-12-18T05:03:43;-8.70;99.90
569;DHT22;269;48.884;9.192;2022-12-18T05:06:12;-8.60;99.90
569;DHT22;269;48.884;9.192;2022-12-18T05:08:39;-8.60;99.90
569;DHT22;269;48.884;9.192;2022-12-18T05:11:08;-8.60;99.90
569;DHT22;269;48.884;9.192;2022-12-18T05:13:36;-8.70;99.90
569;DHT22;269;48.884;9.192;2022-12-18T05:16:04;-8.70;99.90
569;DHT22;269;48.884;9.192;2022-12-18T05:18:32;-8.70;99.90
569;DHT22;269;48.884;9.192;2022-12-18T05:21:00;-8.80;99.90
569;DHT22;269;48.884;9.192;2022-12-18T05:23:29;-8.80;99.90
569;DHT22;269;48.884;9.192;2022-12-18T05:25:58;-8.80;99.90
569;DHT22;269;48.884;9.192;2022-12-18T05:28:27;-8.80;99.90
569;DHT22;269;48.884;9.192;2022-12-18T05:30:57;-8.50;99.90
569;DHT22;269;48.884;9.192;2022-12-18T05:33:26;-8.80;99.90
569;DHT22;269;48.884;9.192;2022-12-18T05:35:55;-8.80;99.90
569;DHT22;269;48.884;9.192;2022-12-18T05:38:24;-8.90;99.90
569;DHT22;269;48.884;9.192;2022-12-18T05:40:53;-9.00;99.90
569;DHT22;269;48.884;9.192;2022-12-18T05:43:22;-9.00;99.90
569;DHT22;269;48.884;9.192;2022-12-18T05:45:50;-9.00;99.90
569;DHT22;269;48.884;9.192;2022-12-18T05:48:18;-8.90;99.90
569;DHT22;269;48.884;9.192;2022-12-18T05:50:47;-9.00;99.90
569;DHT22;269;48.884;9.192;2022-12-18T05:53:16;-9.00;99.90
569;DHT22;269;48.884;9.192;2022-12-18T05:55:44;-8.70;99.90
569;DHT22;269;48.884;9.192;2022-12-18T05:58:13;-8.90;99.90
569;DHT22;269;48.884;9.192;2022-12-18T06:00:43;-8.60;99.90
569;DHT22;269;48.884;9.192;2022-12-18T06:03:11;-8.90;99.90
569;DHT22;269;48.884;9.192;2022-12-18T06:05:40;-8.90;99.90
569;DHT22;269;48.884;9.192;2022-12-18T06:08:08;-9.00;99.90
569;DHT22;269;48.884;9.192;2022-12-18T06:10:36;-8.80;99.90
569;DHT22;269;48.884;9.192;2022-12-18T06:13:04;-9.00;99.90
569;DHT22;269;48.884;9.192;2022-12-18T06:15:35;-9.00;99.90
569;DHT22;269;48.884;9.192;2022-12-18T06:18:02;-9.00;99.90
569;DHT22;269;48.884;9.192;2022-12-18T06:20:30;-9.00;99.90
569;DHT22;269;48.884;9.192;2022-12-18T06:22:57;-8.90;99.90
569;DHT22;269;48.884;9.192;2022-12-18T06:25:24;-9.10;99.90
569;DHT22;269;48.884;9.192;2022-12-18T06:27:52;-9.10;99.90
569;DHT22;269;48.884;9.192;2022-12-18T06:30:19;-9.20;99.90
569;DHT22;269;48.884;9.192;2022-12-18T06:32:49;-9.20;99.90
569;DHT22;269;48.884;9.192;2022-12-18T06:35:17;-9.30;99.90
569;DHT22;269;48.884;9.192;2022-12-18T06:37:44;-9.20;99.90
569;DHT22;269;48.884;9.192;2022-12-18T06:40:11;-9.20;99.90
569;DHT22;269;48.884;9.192;2022-12-18T06:42:38;-9.20;99.90
569;DHT22;269;48.884;9.192;2022-12-18T06:45:06;-8.90;99.90
569;DHT22;269;48.884;9.192;2022-12-18T06:47:33;-8.70;99.90
569;DHT22;269;48.884;9.192;2022-12-18T06:50:02;-8.70;99.90
569;DHT22;269;48.884;9.192;2022-12-18T06:52:31;-8.70;99.90
569;DHT22;269;48.884;9.192;2022-12-18T06:54:59;-8.70;99.90
569;DHT22;269;48.884;9.192;2022-12-18T06:57:26;-8.80;99.90
569;DHT22;269;48.884;9.192;2022-12-18T06:59:53;-8.80;99.90
569;DHT22;269;48.884;9.192;2022-12-18T07:02:20;-8.90;99.90
569;DHT22;269;48.884;9.192;2022-12-18T07:04:51;-9.00;99.90
569;DHT22;269;48.884;9.192;2022-12-18T07:07:19;-9.00;99.90
569;DHT22;269;48.884;9.192;2022-12-18T07:09:47;-9.10;99.90
569;DHT22;269;48.884;9.192;2022-12-18T07:12:15;-9.10;99.90
569;DHT22;269;48.884;9.192;2022-12-18T07:14:42;-9.10;99.90
569;DHT22;269;48.884;9.192;2022-12-18T07:17:09;-9.10;99.90
569;DHT22;269;48.884;9.192;2022-12-18T07:19:36;-9.10;99.90
569;DHT22;269;48.884;9.192;2022-12-18T07:22:03;-9.20;99.90
569;DHT22;269;48.884;9.192;2022-12-18T07:24:33;-9.20;99.90
569;DHT22;269;48.884;9.192;2022-12-18T07:27:01;-9.20;99.90
569;DHT22;269;48.884;9.192;2022-12-18T07:29:29;-9.10;99.90
569;DHT22;269;48.884;9.192;2022-12-18T07:31:56;-9.10;99.90
569;DHT22;269;48.884;9.192;2022-12-18T07:34:24;-9.10;99.90
569;DHT22;269;48.884;9.192;2022-12-18T07:36:51;-9.00;99.90
569;DHT22;269;48.884;9.192;2022-12-18T07:39:18;-9.00;99.90
569;DHT22;269;48.884;9.192;2022-12-18T07:41:47;-8.90;99.90
569;DHT22;269;48.884;9.192;2022-12-18T07:44:34;-8.90;99.90
569;DHT22;269;48.884;9.192;2022-12-18T07:47:01;-8.80;99.90
569;DHT22;269;48.884;9.192;2022-12-18T07:49:29;-8.70;99.90
569;DHT22;269;48.884;9.192;2022-12-18T07:51:56;-8.70;99.90
569;DHT22;269;48.884;9.192;2022-12-18T07:54:24;-8.70;99.90
569;DHT22;269;48.884;9.192;2022-12-18T07:56:53;-8.60;99.90
569;DHT22;269;48.884;9.192;2022-12-18T07:59:20;-8.60;99.90
569;DHT22;269;48.884;9.192;2022-12-18T08:01:48;-8.60;99.90
569;DHT22;269;48.884;9.192;2022-12-18T08:04:15;-8.50;99.90
569;DHT22;269;48.884;9.192;2022-12-18T08:06:42;-8.60;99.90
569;DHT22;269;48.884;9.192;2022-12-18T08:09:10;-8.60;99.90
569;DHT22;269;48.884;9.192;2022-12-18T08:11:37;-8.60;99.90
569;DHT22;269;48.884;9.192;2022-12-18T08:14:05;-8.60;99.90
569;DHT22;269;48.884;9.192;2022-12-18T08:16:33;-8.60;99.90
569;DHT22;269;48.884;9.192;2022-12-18T08:19:00;-8.50;99.90
569;DHT22;269;48.884;9.192;2022-12-18T08:21:28;-8.40;99.90
569;DHT22;269;48.884;9.192;2022-12-18T08:23:57;-8.30;99.90
569;DHT22;269;48.884;9.192;2022-12-18T08:26:26;-8.30;99.90
569;DHT22;269;48.884;9.192;2022-12-18T08:28:54;-8.10;99.90
569;DHT22;269;48.884;9.192;2022-12-18T08:31:28;-7.90;99.90
569;DHT22;269;48.884;9.192;2022-12-18T08:33:56;-8.10;99.90
569;DHT22;269;48.884;9.192;2022-12-18T08:36:24;-8.10;99.90
569;DHT22;269;48.884;9.192;2022-12-18T08:38:52;-8.00;99.90
569;DHT22;269;48.884;9.192;2022-12-18T08:41:20;-7.70;99.90
569;DHT22;269;48.884;9.192;2022-12-18T08:43:48;-7.50;99.90
569;DHT22;269;48.884;9.192;2022-12-18T08:46:36;-7.70;99.90
569;DHT22;269;48.884;9.192;2022-12-18T08:49:05;-7.80;99.90
569;DHT22;269;48.884;9.192;2022-12-18T08:51:33;-7.70;99.90
569;DHT22;269;48.884;9.192;2022-12-18T08:54:00;-7.60;99.90
569;DHT22;269;48.884;9.192;2022-12-18T08:56:28;-7.50;99.90
569;DHT22;269;48.884;9.192;2022-12-18T08:58:55;-7.10;99.90
569;DHT22;269;48.884;9.192;2022-12-18T09:01:23;-6.80;99.90
569;DHT22;269;48.884;9.192;2022-12-18T09:03:51;-6.30;99.90
569;DHT22;269;48.884;9.192;2022-12-18T09:06:20;-5.90;99.90
569;DHT22;269;48.884;9.192;2022-12-18T09:08:47;-5.80;99.90
569;DHT22;269;48.884;9.192;2022-12-18T09:11:19;-5.70;99.90
569;DHT22;269;48.884;9.192;2022-12-18T09:13:47;-5.40;99.90
569;DHT22;269;48.884;9.192;2022-12-18T09:16:14;-5.10;99.90
569;DHT22;269;48.884;9.192;2022-12-18T09:18:42;-4.80;99.90
569;DHT22;269;48.884;9.192;2022-12-18T09:21:12;-4.90;99.90
569;DHT22;269;48.884;9.192;2022-12-18T09:23:40;-4.90;99.90
569;DHT22;269;48.884;9.192;2022-12-18T09:26:08;-4.80;99.90
569;DHT22;269;48.884;9.192;2022-12-18T09:28:35;-4.50;99.90
569;DHT22;269;48.884;9.192;2022-12-18T09:31:04;-4.50;99.90
569;DHT22;269;48.884;9.192;2022-12-18T09:33:33;-4.40;99.90
569;DHT22;269;48.884;9.192;2022-12-18T09:36:02;-4.20;99.90
569;DHT22;269;48.884;9.192;2022-12-18T09:38:31;-3.80;99.90
569;DHT22;269;48.884;9.192;2022-12-18T09:41:05;-3.40;99.90
569;DHT22;269;48.884;9.192;2022-12-18T09:43:36;-3.00;99.90
569;DHT22;269;48.884;9.192;2022-12-18T09:46:07;-2.50;99.90
569;DHT22;269;48.884;9.192;2022-12-18T09:48:38;-2.20;99.90
569;DHT22;269;48.884;9.192;2022-12-18T09:51:14;-1.90;99.90
569;DHT22;269;48.884;9.192;2022-12-18T09:53:47;-1.50;99.90
569;DHT22;269;48.884;9.192;2022-12-18T09:56:19;-1.20;99.90
569;DHT22;269;48.884;9.192;2022-12-18T09:58:53;-0.80;99.90
569;DHT22;269;48.884;9.192;2022-12-18T10:01:22;-0.70;99.90
569;DHT22;269;48.884;9.192;2022-12-18T10:03:50;-0.50;99.90
569;DHT22;269;48.884;9.192;2022-12-18T10:06:21;-0.40;99.90
569;DHT22;269;48.884;9.192;2022-12-18T10:08:59;-0.10;99.90
569;DHT22;269;48.884;9.192;2022-12-18T10:11:40;0.20;99.90
569;DHT22;269;48.884;9.192;2022-12-18T10:14:14;0.20;99.90
569;DHT22;269;48.884;9.192;2022-12-18T10:16:51;0.10;99.90
569;DHT22;269;48.884;9.192;2022-12-18T10:19:34;0.40;99.90
569;DHT22;269;48.884;9.192;2022-12-18T10:22:11;0.50;99.90
569;DHT22;269;48.884;9.192;2022-12-18T10:24:47;0.80;99.90
569;DHT22;269;48.884;9.192;2022-12-18T10:27:18;1.10;99.90
569;DHT22;269;48.884;9.192;2022-12-18T10:29:48;1.50;99.90
569;DHT22;269;48.884;9.192;2022-12-18T10:32:17;1.80;99.90
569;DHT22;269;48.884;9.192;2022-12-18T10:34:46;1.90;99.90
569;DHT22;269;48.884;9.192;2022-12-18T10:37:17;2.10;99.90
569;DHT22;269;48.884;9.192;2022-12-18T10:39:46;2.30;99.90
569;DHT22;269;48.884;9.192;2022-12-18T10:42:31;2.60;99.90
569;DHT22;269;48.884;9.192;2022-12-18T10:45:02;2.70;99.90
569;DHT22;269;48.884;9.192;2022-12-18T10:47:30;2.80;99.90
569;DHT22;269;48.884;9.192;2022-12-18T10:49:57;2.30;99.90
569;DHT22;269;48.884;9.192;2022-12-18T10:52:25;2.20;99.90
569;DHT22;269;48.884;9.192;2022-12-18T10:54:56;1.90;99.90
569;DHT22;269;48.884;9.192;2022-12-18T10:57:33;1.80;99.90
569;DHT22;269;48.884;9.192;2022-12-18T11:00:21;1.80;99.90
569;DHT22;269;48.884;9.192;2022-12-18T11:02:50;1.60;99.90
569;DHT22;269;48.884;9.192;2022-12-18T11:05:27;1.50;99.90
569;DHT22;269;48.884;9.192;2022-12-18T11:07:55;1.60;99.90
569;DHT22;269;48.884;9.192;2022-12-18T11:10:28;1.80;99.90
569;DHT22;269;48.884;9.192;2022-12-18T11:13:09;1.60;99.90
569;DHT22;269;48.884;9.192;2022-12-18T11:15:37;1.10;99.90
569;DHT22;269;48.884;9.192;2022-12-18T11:18:17;0.50;99.90
569;DHT22;269;48.884;9.192;2022-12-18T11:20:51;0.00;99.90
569;DHT22;269;48.884;9.192;2022-12-18T11:23:19;-0.10;99.90
569;DHT22;269;48.884;9.192;2022-12-18T11:25:53;-0.10;99.90
569;DHT22;269;48.884;9.192;2022-12-18T11:28:28;0.20;99.90
569;DHT22;269;48.884;9.192;2022-12-18T11:31:14;0.30;99.90
569;DHT22;269;48.884;9.192;2022-12-18T11:33:46;0.80;99.90
569;DHT22;269;48.884;9.192;2022-12-18T11:36:16;1.40;99.90
569;DHT22;269;48.884;9.192;2022-12-18T11:38:46;1.90;99.90
569;DHT22;269;48.884;9.192;2022-12-18T11:41:23;2.40;99.90
569;DHT22;269;48.884;9.192;2022-12-18T11:44:14;2.80;99.90
569;DHT22;269;48.884;9.192;2022-12-18T11:46:47;3.20;99.90
569;DHT22;269;48.884;9.192;2022-12-18T11:49:20;3.10;99.90
569;DHT22;269;48.884;9.192;2022-12-18T11:51:53;2.40;99.90
569;DHT22;269;48.884;9.192;2022-12-18T11:54:22;2.50;99.90
569;DHT22;269;48.884;9.192;2022-12-18T11:56:55;2.50;99.90
569;DHT22;269;48.884;9.192;2022-12-18T11:59:32;2.90;99.90
569;DHT22;269;48.884;9.192;2022-12-18T12:02:14;3.00;99.90
569;DHT22;269;48.884;9.192;2022-12-18T12:05:02;3.20;99.90
569;DHT22;269;48.884;9.192;2022-12-18T12:07:38;3.30;99.90
569;DHT22;269;48.884;9.192;2022-12-18T12:10:18;3.40;99.90
569;DHT22;269;48.884;9.192;2022-12-18T12:13:01;3.40;99.90
569;DHT22;269;48.884;9.192;2022-12-18T12:15:41;3.20;99.90
569;DHT22;269;48.884;9.192;2022-12-18T12:18:21;3.10;99.90
569;DHT22;269;48.884;9.192;2022-12-18T12:20:58;3.00;99.90
569;DHT22;269;48.884;9.192;2022-12-18T12:23:35;2.80;99.90
569;DHT22;269;48.884;9.192;2022-12-18T12:26:07;2.70;99.90
569;DHT22;269;48.884;9.192;2022-12-18T12:28:52;2.60;99.90
569;DHT22;269;48.884;9.192;2022-12-18T12:31:33;2.60;99.90
569;DHT22;269;48.884;9.192;2022-12-18T12:34:10;2.60;99.90
569;DHT22;269;48.884;9.192;2022-12-18T12:36:49;2.60;99.90
569;DHT22;269;48.884;9.192;2022-12-18T12:39:23;2.60;99.90
569;DHT22;269;48.884;9.192;2022-12-18T12:41:54;2.60;99.90
569;DHT22;269;48.884;9.192;2022-12-18T12:44:43;2.40;99.90
569;DHT22;269;48.884;9.192;2022-12-18T12:47:16;1.80;99.90
569;DHT22;269;48.884;9.192;2022-12-18T12:49:45;1.70;99.90
569;DHT22;269;48.884;9.192;2022-12-18T12:52:17;1.70;99.90
569;DHT22;269;48.884;9.192;2022-12-18T12:54:48;1.70;99.90
569;DHT22;269;48.884;9.192;2022-12-18T12:57:19;1.80;99.90
569;DHT22;269;48.884;9.192;2022-12-18T12:59:52;1.90;99.90
569;DHT22;269;48.884;9.192;2022-12-18T13:02:29;1.90;99.90
569;DHT22;269;48.884;9.192;2022-12-18T13:05:02;2.10;99.90
569;DHT22;269;48.884;9.192;2022-12-18T13:07:37;1.90;99.90
569;DHT22;269;48.884;9.192;2022-12-18T13:10:31;1.80;99.90
569;DHT22;269;48.884;9.192;2022-12-18T13:13:00;1.70;99.90
569;DHT22;269;48.884;9.192;2022-12-18T13:15:33;1.60;99.90
569;DHT22;269;48.884;9.192;2022-12-18T13:18:10;1.70;99.90
569;DHT22;269;48.884;9.192;2022-12-18T13:20:40;1.70;99.90
569;DHT22;269;48.884;9.192;2022-12-18T13:23:32;1.70;99.90
569;DHT22;269;48.884;9.192;2022-12-18T13:29:08;1.40;99.90
569;DHT22;269;48.884;9.192;2022-12-18T13:34:36;1.50;99.90
569;DHT22;269;48.884;9.192;2022-12-18T13:37:41;1.40;99.90
569;DHT22;269;48.884;9.192;2022-12-18T13:43:31;1.30;99.90
569;DHT22;269;48.884;9.192;2022-12-18T13:46:02;1.30;99.90
569;DHT22;269;48.884;9.192;2022-12-18T13:48:32;1.20;99.90
569;DHT22;269;48.884;9.192;2022-12-18T13:51:04;1.30;99.90
569;DHT22;269;48.884;9.192;2022-12-18T13:53:36;1.20;99.90
569;DHT22;269;48.884;9.192;2022-12-18T13:56:05;1.20;99.90
569;DHT22;269;48.884;9.192;2022-12-18T13:58:32;1.20;99.90
569;DHT22;269;48.884;9.192;2022-12-18T14:00:59;1.20;99.90
569;DHT22;269;48.884;9.192;2022-12-18T14:03:29;1.20;99.90
569;DHT22;269;48.884;9.192;2022-12-18T14:06:05;1.00;99.90
569;DHT22;269;48.884;9.192;2022-12-18T14:08:37;1.00;99.90
569;DHT22;269;48.884;9.192;2022-12-18T14:11:06;0.90;99.90
569;DHT22;269;48.884;9.192;2022-12-18T14:13:37;0.40;99.90
569;DHT22;269;48.884;9.192;2022-12-18T14:16:06;0.10;99.90
569;DHT22;269;48.884;9.192;2022-12-18T14:18:42;0.00;99.90
569;DHT22;269;48.884;9.192;2022-12-18T14:21:19;-0.10;99.90
569;DHT22;269;48.884;9.192;2022-12-18T14:23:47;-0.10;99.90
569;DHT22;269;48.884;9.192;2022-12-18T14:26:22;-0.30;99.90
569;DHT22;269;48.884;9.192;2022-12-18T14:28:50;-0.30;99.90
569;DHT22;269;48.884;9.192;2022-12-18T14:31:20;-0.40;99.90
569;DHT22;269;48.884;9.192;2022-12-18T14:33:48;-0.40;99.90
569;DHT22;269;48.884;9.192;2022-12-18T14:36:19;-0.50;99.90
569;DHT22;269;48.884;9.192;2022-12-18T14:38:49;-0.30;99.90
569;DHT22;269;48.884;9.192;2022-12-18T14:41:18;-0.50;99.90
569;DHT22;269;48.884;9.192;2022-12-18T14:43:47;-0.70;99.90
569;DHT22;269;48.884;9.192;2022-12-18T14:46:33;-0.70;99.90
569;DHT22;269;48.884;9.192;2022-12-18T14:49:03;-0.80;99.90
569;DHT22;269;48.884;9.192;2022-12-18T14:51:34;-0.90;99.90
569;DHT22;269;48.884;9.192;2022-12-18T14:54:04;-1.00;99.90
569;DHT22;269;48.884;9.192;2022-12-18T14:56:34;-1.00;99.90
569;DHT22;269;48.884;9.192;2022-12-18T14:59:03;-1.10;99.90
569;DHT22;269;48.884;9.192;2022-12-18T15:01:34;-1.20;99.90
569;DHT22;269;48.884;9.192;2022-12-18T15:04:03;-1.30;99.90
569;DHT22;269;48.884;9.192;2022-12-18T15:06:35;-1.40;99.90
569;DHT22;269;48.884;9.192;2022-12-18T15:09:05;-1.50;99.90
569;DHT22;269;48.884;9.192;2022-12-18T15:11:48;-1.60;99.90
569;DHT22;269;48.884;9.192;2022-12-18T15:14:23;-1.70;99.90
569;DHT22;269;48.884;9.192;2022-12-18T15:16:52;-1.80;99.90
569;DHT22;269;48.884;9.192;2022-12-18T15:19:20;-1.80;99.90
569;DHT22;269;48.884;9.192;2022-12-18T15:21:50;-1.90;99.90
569;DHT22;269;48.884;9.192;2022-12-18T15:24:23;-2.00;99.90
569;DHT22;269;48.884;9.192;2022-12-18T15:26:51;-2.10;99.90
569;DHT22;269;48.884;9.192;2022-12-18T15:29:23;-2.20;99.90
569;DHT22;269;48.884;9.192;2022-12-18T15:32:02;-2.20;99.90
569;DHT22;269;48.884;9.192;2022-12-18T15:34:30;-2.20;99.90
569;DHT22;269;48.884;9.192;2022-12-18T15:37:00;-2.30;99.90
569;DHT22;269;48.884;9.192;2022-12-18T15:39:27;-2.40;99.90
569;DHT22;269;48.884;9.192;2022-12-18T15:41:55;-2.40;99.90
569;DHT22;269;48.884;9.192;2022-12-18T15:44:40;-2.50;99.90
569;DHT22;269;48.884;9.192;2022-12-18T15:47:12;-2.50;99.90
569;DHT22;269;48.884;9.192;2022-12-18T15:49:39;-2.60;99.90
569;DHT22;269;48.884;9.192;2022-12-18T15:52:10;-2.60;99.90
569;DHT22;269;48.884;9.192;2022-12-18T15:54:39;-2.70;99.90
569;DHT22;269;48.884;9.192;2022-12-18T15:57:23;-2.70;99.90
569;DHT22;269;48.884;9.192;2022-12-18T15:59:51;-2.80;99.90
569;DHT22;269;48.884;9.192;2022-12-18T16:02:20;-2.80;99.90
569;DHT22;269;48.884;9.192;2022-12-18T16:04:48;-2.80;99.90
569;DHT22;269;48.884;9.192;2022-12-18T16:07:17;-2.80;99.90
569;DHT22;269;48.884;9.192;2022-12-18T16:09:47;-2.90;99.90
569;DHT22;269;48.884;9.192;2022-12-18T16:12:17;-2.90;99.90
569;DHT22;269;48.884;9.192;2022-12-18T16:14:45;-2.90;99.90
569;DHT22;269;48.884;9.192;2022-12-18T16:17:14;-2.90;99.90
569;DHT22;269;48.884;9.192;2022-12-18T16:19:44;-2.90;99.90
569;DHT22;269;48.884;9.192;2022-12-18T16:22:21;-3.00;99.90
569;DHT22;269;48.884;9.192;2022-12-18T16:24:49;-3.00;99.90
569;DHT22;269;48.884;9.192;2022-12-18T16:27:17;-3.00;99.90
569;DHT22;269;48.884;9.192;2022-12-18T16:29:44;-3.00;99.90
569;DHT22;269;48.884;9.192;2022-12-18T16:32:14;-3.00;99.90
569;DHT22;269;48.884;9.192;2022-12-18T16:34:42;-3.00;99.90
569;DHT22;269;48.884;9.192;2022-12-18T16:37:11;-3.10;99.90
569;DHT22;269;48.884;9.192;2022-12-18T16:39:40;-3.10;99.90
569;DHT22;269;48.884;9.192;2022-12-18T16:42:11;-3.10;99.90
569;DHT22;269;48.884;9.192;2022-12-18T16:44:40;-3.00;99.90
569;DHT22;269;48.884;9.192;2022-12-18T16:47:07;-3.10;99.90
569;DHT22;269;48.884;9.192;2022-12-18T16:49:34;-3.10;99.90
569;DHT22;269;48.884;9.192;2022-12-18T16:52:02;-3.20;99.90
569;DHT22;269;48.884;9.192;2022-12-18T16:54:30;-3.20;99.90
569;DHT22;269;48.884;9.192;2022-12-18T16:57:00;-3.10;99.90
569;DHT22;269;48.884;9.192;2022-12-18T16:59:27;-3.20;99.90
569;DHT22;269;48.884;9.192;2022-12-18T17:01:54;-3.20;99.90
569;DHT22;269;48.884;9.192;2022-12-18T17:04:22;-3.20;99.90
569;DHT22;269;48.884;9.192;2022-12-18T17:06:50;-3.20;99.90
569;DHT22;269;48.884;9.192;2022-12-18T17:09:19;-3.20;99.90
569;DHT22;269;48.884;9.192;2022-12-18T17:11:49;-3.20;99.90